General Lucio Blanco International Airport
MMRX : rendu visible

Aérodrome :











RETROUVEZ-NOUS SUR...

 
LOGIN :

S'inscrire | Disclaimer

   EN    FR    IT 

 









Légende :    VFR   VFR Marginal   IFR   IFR Intensif   IFR Très Intensif
Visi : 
Plafond : 
>= 8 km
>= 3000ft
5 à 8 km
1000 à 3000 ft
1500m à 5 km
500 à 1000 ft
800 à 1500m
200 à 500 ft
< 800m
< 200 ft
Symboles :   Orages  Brouillard  Fortes neiges  Fortes précipitations  Vent > 20 kt






- Altitude de l'aérodrome : 139 ft
- Code IATA : REX


MMRX - General Lucio Blanco International

DERNIER METAR :
  • 262242Z 00000KT 10SM SCT100 29/20 A2985 RMK 8/030

METARs EXPIRÉS :
  • 262144Z 32006KT 10SM BKN100 28/20 A2986 RMK 8/030
  • 262048Z 31003KT 10SM FEW020TCU OVC100 26/19 A2988 RMK SLP115 57013 942 8/22/ OCNL DROPS BINOVC

TAF TAF MMRX
Valide du 26 à 18h jusqu'au 27 à 18h UTC


261727Z 2618/2718 02010KT P6SM SCT020 BKN080
BECMG 2620/2621 05015KT BKN020CB BKN080
TEMPO 2621/2701 6SM TSRA
FM270200 09006KT P6SM BKN020 BKN080
BECMG 2705/2706 12006KT
FM271000 15005KT 6SM HZ BKN015 BKN030
TEMPO 2711/2715 3SM BR HZ
FIR MMFR / Amérique du Nord



MET'MAP, la Météo Aéronautique d'un coup d'oeil ! - Copyright ORBIFLY Décembre 2007 - Disclaimer

ORBIFLY MET'MAP TEAM :

Programmation & Développement : Alexandra Zaïnal
Sur une idée originale de : Baudouin d'Aumeries
Assistance à la programmation : Marc-Olivier Méhu
Soutien technique & logistique : Manuel Goepfert

Contact : metmap@orbifly.com




SOURCES & CREDITS :

   NOAA       Earth
Advisory